createdAt,value
2024-01-30T00:00:50.504Z,21.38
2024-01-30T00:03:17.284Z,16.33
2024-01-30T00:05:43.899Z,20.17
2024-01-30T00:08:10.670Z,18.83
2024-01-30T00:10:37.448Z,18.20
2024-01-30T00:13:04.180Z,16.60
2024-01-30T00:15:30.861Z,18.03
2024-01-30T00:17:58.028Z,19.48
2024-01-30T00:20:24.859Z,17.40
2024-01-30T00:22:51.488Z,16.90
2024-01-30T00:25:18.184Z,18.30
2024-01-30T00:27:44.916Z,21.73
2024-01-30T00:30:12.231Z,17.23
2024-01-30T00:32:38.940Z,19.13
2024-01-30T00:35:06.065Z,18.00
2024-01-30T00:37:33.060Z,18.02
2024-01-30T00:39:59.719Z,16.47
2024-01-30T00:42:27.277Z,16.30
2024-01-30T00:44:53.922Z,18.20
2024-01-30T00:47:20.519Z,15.45
2024-01-30T00:49:47.229Z,15.13
2024-01-30T00:52:13.916Z,20.20
2024-01-30T00:54:40.587Z,17.65
2024-01-30T00:57:07.312Z,15.10
2024-01-30T00:59:33.954Z,17.60
2024-01-30T01:02:00.711Z,17.52
2024-01-30T01:04:28.201Z,16.40
2024-01-30T01:06:55.049Z,18.40
2024-01-30T01:09:21.760Z,17.05
2024-01-30T01:11:48.886Z,16.58
2024-01-30T01:14:15.667Z,20.65
2024-01-30T01:16:42.240Z,18.63
2024-01-30T01:19:08.987Z,17.25
2024-01-30T01:21:35.766Z,15.52
2024-01-30T01:24:02.361Z,14.88
2024-01-30T01:26:29.059Z,15.25
2024-01-30T01:28:55.739Z,18.10
2024-01-30T01:31:25.843Z,17.25
2024-01-30T01:33:52.840Z,17.83
2024-01-30T01:36:19.602Z,18.20
2024-01-30T01:38:46.271Z,16.42
2024-01-30T01:41:12.929Z,16.20
2024-01-30T01:43:40.314Z,16.50
2024-01-30T01:46:08.210Z,16.95
2024-01-30T01:48:34.931Z,15.93
2024-01-30T01:51:01.982Z,16.27
2024-01-30T01:53:28.908Z,16.83
2024-01-30T01:55:55.959Z,17.20
2024-01-30T01:58:23.459Z,17.00
2024-01-30T02:00:51.152Z,14.07
2024-01-30T02:03:19.005Z,16.40
2024-01-30T02:05:45.894Z,17.03
2024-01-30T02:08:12.650Z,18.13
2024-01-30T02:10:39.376Z,14.13
2024-01-30T02:13:06.105Z,15.10
2024-01-30T02:15:32.899Z,16.42
2024-01-30T02:17:59.611Z,15.03
2024-01-30T02:20:26.686Z,14.45
2024-01-30T02:22:57.145Z,16.48
2024-01-30T02:25:47.323Z,17.48
2024-01-30T02:28:14.818Z,15.63
2024-01-30T02:30:43.707Z,17.00
2024-01-30T02:33:10.412Z,15.80
2024-01-30T02:35:37.132Z,15.27
2024-01-30T02:38:03.901Z,15.70
2024-01-30T02:40:30.661Z,15.23
2024-01-30T02:42:57.624Z,16.77
2024-01-30T02:45:24.201Z,15.68
2024-01-30T02:47:50.905Z,15.73
2024-01-30T02:50:17.733Z,15.90
2024-01-30T02:52:47.498Z,17.50
2024-01-30T02:55:14.287Z,16.13
2024-01-30T02:57:41.009Z,14.70
2024-01-30T03:00:10.456Z,14.25
2024-01-30T03:02:37.666Z,17.30
2024-01-30T03:05:07.602Z,17.65
2024-01-30T03:07:34.663Z,14.13
2024-01-30T03:10:01.888Z,18.05
2024-01-30T03:12:29.027Z,15.57
2024-01-30T03:14:55.745Z,16.63
2024-01-30T03:17:22.380Z,16.23
2024-01-30T03:19:49.113Z,14.37
2024-01-30T03:22:15.901Z,15.43
2024-01-30T03:24:42.668Z,15.93
2024-01-30T03:27:09.941Z,17.85
2024-01-30T03:29:36.553Z,15.95
2024-01-30T03:32:04.936Z,16.20
2024-01-30T03:34:31.758Z,16.30
2024-01-30T03:36:58.467Z,18.52
2024-01-30T03:39:25.865Z,22.10
2024-01-30T03:41:52.533Z,17.92
2024-01-30T03:44:19.122Z,15.60
2024-01-30T03:46:45.734Z,18.40
2024-01-30T03:49:12.465Z,16.73
2024-01-30T03:51:39.156Z,17.30
2024-01-30T03:54:05.796Z,15.35
2024-01-30T03:56:32.425Z,14.53
2024-01-30T03:58:59.795Z,17.60
2024-01-30T04:01:26.503Z,16.67
2024-01-30T04:03:53.338Z,16.27
2024-01-30T04:06:20.049Z,16.25
2024-01-30T04:08:46.685Z,16.07
2024-01-30T04:11:13.328Z,15.95
2024-01-30T04:13:39.988Z,16.27
2024-01-30T04:16:07.174Z,17.52
2024-01-30T04:18:35.109Z,18.02
2024-01-30T04:21:01.750Z,16.87
2024-01-30T04:23:28.617Z,16.98
2024-01-30T04:25:55.268Z,15.30
2024-01-30T04:28:21.917Z,15.57
2024-01-30T04:30:48.561Z,17.23
2024-01-30T04:33:15.299Z,22.13
2024-01-30T04:35:41.963Z,17.10
2024-01-30T04:38:08.593Z,15.75
2024-01-30T04:40:35.245Z,15.57
2024-01-30T04:43:01.895Z,16.55
2024-01-30T04:45:28.558Z,20.53
2024-01-30T04:47:55.306Z,17.35
2024-01-30T04:50:21.994Z,14.80
2024-01-30T04:52:48.674Z,17.75
2024-01-30T04:55:15.431Z,14.55
2024-01-30T04:57:42.034Z,16.97
2024-01-30T05:00:09.405Z,16.48
2024-01-30T05:02:36.081Z,18.90
2024-01-30T05:05:02.807Z,16.05
2024-01-30T05:07:29.598Z,14.10
2024-01-30T05:09:58.972Z,13.87
2024-01-30T05:12:26.414Z,19.38
2024-01-30T05:14:53.066Z,15.68
2024-01-30T05:17:19.708Z,15.50
2024-01-30T05:19:46.707Z,16.05
2024-01-30T05:22:16.737Z,15.07
2024-01-30T05:24:44.140Z,14.77
2024-01-30T05:27:10.967Z,15.30
2024-01-30T05:29:37.590Z,18.48
2024-01-30T05:32:05.211Z,14.82
2024-01-30T05:34:31.797Z,17.03
2024-01-30T05:36:58.533Z,16.05
2024-01-30T05:39:25.177Z,16.48
2024-01-30T05:41:51.787Z,14.75
2024-01-30T05:44:18.451Z,14.20
2024-01-30T05:46:45.019Z,15.93
2024-01-30T05:49:11.653Z,14.65
2024-01-30T05:51:38.322Z,15.45
2024-01-30T05:54:05.595Z,15.60
2024-01-30T05:56:32.264Z,15.25
2024-01-30T05:58:58.929Z,17.57
2024-01-30T06:01:25.741Z,15.68
2024-01-30T06:03:52.378Z,14.25
2024-01-30T06:06:19.147Z,15.88
2024-01-30T06:08:45.784Z,17.25
2024-01-30T06:11:13.207Z,15.40
2024-01-30T06:13:39.887Z,16.88
2024-01-30T06:16:10.932Z,15.80
2024-01-30T06:18:37.614Z,14.02
2024-01-30T06:21:05.739Z,17.13
2024-01-30T06:23:32.316Z,14.43
2024-01-30T06:25:58.925Z,14.88
2024-01-30T06:28:25.670Z,14.27
2024-01-30T06:30:52.560Z,14.18
2024-01-30T06:33:19.418Z,16.00
2024-01-30T06:35:46.899Z,18.03
2024-01-30T06:38:14.416Z,13.68
2024-01-30T06:40:41.043Z,16.33
2024-01-30T06:43:08.891Z,15.95
2024-01-30T06:45:36.019Z,14.60
2024-01-30T06:48:02.665Z,14.97
2024-01-30T06:50:29.362Z,15.25
2024-01-30T06:52:56.053Z,16.60
2024-01-30T06:55:22.775Z,20.98
2024-01-30T06:57:51.511Z,14.80
2024-01-30T07:00:20.645Z,13.50
2024-01-30T07:02:47.393Z,15.80
2024-01-30T07:05:14.567Z,14.32
2024-01-30T07:07:41.421Z,15.32
2024-01-30T07:10:08.796Z,14.55
2024-01-30T07:12:35.467Z,13.17
2024-01-30T07:15:03.848Z,14.18
2024-01-30T07:17:30.536Z,16.15
2024-01-30T07:19:57.306Z,15.02
2024-01-30T07:22:24.053Z,15.10
2024-01-30T07:24:52.108Z,14.50
2024-01-30T07:27:19.289Z,13.07
2024-01-30T07:29:46.000Z,14.45
2024-01-30T07:32:12.632Z,14.25
2024-01-30T07:34:44.931Z,13.75
2024-01-30T07:37:17.121Z,13.47
2024-01-30T07:39:44.029Z,13.05
2024-01-30T07:42:10.757Z,14.85
2024-01-30T07:44:37.432Z,13.75
2024-01-30T07:47:04.306Z,15.55
2024-01-30T07:49:30.941Z,15.83
2024-01-30T07:51:57.637Z,16.52
2024-01-30T07:54:24.520Z,13.93
2024-01-30T07:56:51.137Z,13.90
2024-01-30T07:59:17.949Z,15.85
2024-01-30T08:01:44.711Z,13.17
2024-01-30T08:04:11.434Z,16.38
2024-01-30T08:06:39.588Z,13.43
2024-01-30T08:09:08.253Z,15.50
2024-01-30T08:11:35.127Z,13.00
2024-01-30T08:14:01.696Z,16.43
2024-01-30T08:16:28.396Z,17.75
2024-01-30T08:18:57.764Z,15.45
2024-01-30T08:21:24.766Z,15.02
2024-01-30T08:23:51.487Z,14.80
2024-01-30T08:26:18.078Z,13.67
2024-01-30T08:28:44.741Z,13.35
2024-01-30T08:31:13.228Z,13.00
2024-01-30T08:33:40.592Z,13.73
2024-01-30T08:36:08.539Z,14.32
2024-01-30T08:38:35.149Z,12.53
2024-01-30T08:41:01.967Z,16.00
2024-01-30T08:43:28.761Z,14.38
2024-01-30T08:45:55.487Z,13.85
2024-01-30T08:48:23.849Z,13.18
2024-01-30T08:50:50.527Z,13.80
2024-01-30T08:53:17.201Z,12.30
2024-01-30T08:55:43.901Z,13.18
2024-01-30T08:58:10.618Z,11.98
2024-01-30T09:00:37.458Z,13.60
2024-01-30T09:03:07.096Z,13.17
2024-01-30T09:05:33.838Z,14.52
2024-01-30T09:08:00.624Z,17.13
2024-01-30T09:10:27.951Z,12.18
2024-01-30T09:12:54.839Z,12.57
2024-01-30T09:15:23.708Z,13.93
2024-01-30T09:17:51.774Z,13.73
2024-01-30T09:20:18.479Z,13.80
2024-01-30T09:22:45.362Z,12.73
2024-01-30T09:25:12.148Z,15.93
2024-01-30T09:27:38.776Z,12.60
2024-01-30T09:30:06.059Z,14.65
2024-01-30T09:32:32.772Z,13.32
2024-01-30T09:34:59.567Z,13.35
2024-01-30T09:37:27.671Z,14.13
2024-01-30T09:39:54.542Z,13.37
2024-01-30T09:42:27.750Z,15.02
2024-01-30T09:44:54.647Z,14.10
2024-01-30T09:47:21.318Z,11.57
2024-01-30T09:49:49.070Z,14.65
2024-01-30T09:52:16.210Z,16.87
2024-01-30T09:54:43.002Z,16.05
2024-01-30T09:57:10.519Z,14.63
2024-01-30T09:59:37.202Z,15.65
2024-01-30T10:02:05.529Z,16.67
2024-01-30T10:04:32.320Z,19.03
2024-01-30T10:07:02.776Z,14.93
2024-01-30T10:09:33.028Z,18.27
2024-01-30T10:11:59.675Z,14.23
2024-01-30T10:14:26.737Z,13.40
2024-01-30T10:16:53.801Z,14.23
2024-01-30T10:19:20.652Z,16.23
2024-01-30T10:21:47.555Z,12.98
2024-01-30T10:24:15.127Z,11.40
2024-01-30T10:26:41.861Z,13.48
2024-01-30T10:29:08.560Z,14.07
2024-01-30T10:31:35.390Z,15.35
2024-01-30T10:34:11.562Z,13.32
2024-01-30T10:36:48.041Z,14.13
2024-01-30T10:39:16.622Z,13.25
2024-01-30T10:41:46.865Z,14.80
2024-01-30T10:44:16.403Z,13.40
2024-01-30T10:46:43.929Z,16.23
2024-01-30T10:49:11.540Z,15.73
2024-01-30T10:51:38.505Z,15.18
2024-01-30T10:54:06.215Z,16.33
2024-01-30T10:56:34.547Z,14.80
2024-01-30T10:59:01.338Z,11.48
2024-01-30T11:01:28.592Z,13.23
2024-01-30T11:03:55.843Z,15.00
2024-01-30T11:06:26.547Z,16.03
2024-01-30T11:09:10.774Z,12.15
2024-01-30T11:11:58.358Z,14.57
2024-01-30T11:14:28.728Z,13.73
2024-01-30T11:16:59.082Z,11.98
2024-01-30T11:19:32.300Z,14.63
2024-01-30T11:21:59.059Z,14.50
2024-01-30T11:24:26.548Z,13.30
2024-01-30T11:27:04.169Z,13.23
2024-01-30T11:29:31.380Z,13.43
2024-01-30T11:32:00.806Z,12.50
2024-01-30T11:34:27.698Z,12.32
2024-01-30T11:37:01.499Z,12.52
2024-01-30T11:39:28.578Z,10.15
2024-01-30T11:41:55.834Z,12.95
2024-01-30T11:44:25.344Z,11.33
2024-01-30T11:46:52.940Z,13.85
2024-01-30T11:49:20.162Z,12.20
2024-01-30T11:51:47.179Z,12.38
2024-01-30T11:54:13.884Z,11.48
2024-01-30T11:56:40.498Z,11.67
2024-01-30T11:59:07.113Z,12.70
2024-01-30T12:01:34.059Z,12.82
2024-01-30T12:04:00.928Z,9.10
2024-01-30T12:06:28.219Z,12.23
2024-01-30T12:09:05.138Z,13.53
2024-01-30T12:11:31.825Z,11.80
2024-01-30T12:13:58.565Z,9.85
2024-01-30T12:16:25.365Z,10.52
2024-01-30T12:19:00.882Z,9.73
2024-01-30T12:21:27.827Z,10.63
2024-01-30T12:23:54.456Z,9.65
2024-01-30T12:26:21.059Z,6.22
2024-01-30T12:28:51.328Z,6.82
2024-01-30T12:31:18.065Z,11.73
2024-01-30T12:33:44.743Z,6.90
2024-01-30T12:36:12.684Z,6.28
2024-01-30T12:38:39.432Z,6.85
2024-01-30T12:41:08.221Z,9.57
2024-01-30T12:43:38.710Z,7.55
2024-01-30T12:46:06.955Z,5.60
2024-01-30T12:48:34.009Z,10.93
2024-01-30T12:51:00.933Z,9.77
2024-01-30T12:53:27.673Z,8.15
2024-01-30T12:55:55.472Z,8.43
2024-01-30T12:58:22.448Z,6.37
2024-01-30T13:00:49.359Z,8.73
2024-01-30T13:03:16.476Z,5.57
2024-01-30T13:05:43.674Z,8.63
2024-01-30T13:08:10.357Z,6.97
2024-01-30T13:10:37.090Z,7.97
2024-01-30T13:13:04.062Z,4.60
2024-01-30T13:15:30.704Z,4.43
2024-01-30T13:17:57.347Z,6.57
2024-01-30T13:20:24.157Z,10.43
2024-01-30T13:22:51.244Z,4.93
2024-01-30T13:25:18.024Z,6.22
2024-01-30T13:27:44.694Z,8.77
2024-01-30T13:30:11.942Z,6.25
2024-01-30T13:32:38.830Z,8.27
2024-01-30T13:35:06.004Z,6.37
2024-01-30T13:37:32.805Z,7.50
2024-01-30T13:39:59.518Z,8.23
2024-01-30T13:42:26.366Z,6.32
2024-01-30T13:44:53.128Z,9.15
2024-01-30T13:47:22.451Z,6.80
2024-01-30T13:49:49.377Z,7.50
2024-01-30T13:52:16.128Z,8.52
2024-01-30T13:54:43.484Z,8.38
2024-01-30T13:57:10.695Z,13.18
2024-01-30T13:59:38.600Z,7.63
2024-01-30T14:02:05.374Z,7.93
2024-01-30T14:04:32.122Z,8.15
2024-01-30T14:07:04.699Z,9.27
2024-01-30T14:09:33.410Z,7.32
2024-01-30T14:12:00.134Z,10.03
2024-01-30T14:14:26.822Z,8.00
2024-01-30T14:16:53.472Z,8.20
2024-01-30T14:19:20.175Z,6.88
2024-01-30T14:21:46.931Z,8.35
2024-01-30T14:24:13.573Z,7.43
2024-01-30T14:26:40.228Z,8.10
2024-01-30T14:29:06.910Z,7.00
2024-01-30T14:31:33.573Z,3.92
2024-01-30T14:34:01.332Z,6.45
2024-01-30T14:36:29.372Z,6.23
2024-01-30T14:38:56.510Z,7.22
2024-01-30T14:41:23.514Z,6.32
2024-01-30T14:43:50.194Z,8.93
2024-01-30T14:46:16.890Z,5.93
2024-01-30T14:48:44.405Z,6.23
2024-01-30T14:51:11.069Z,8.45
2024-01-30T14:53:37.969Z,9.07
2024-01-30T14:56:05.664Z,6.28
2024-01-30T14:58:32.526Z,8.60
2024-01-30T15:00:59.356Z,9.10
2024-01-30T15:03:29.517Z,5.45
2024-01-30T15:05:56.630Z,8.45
2024-01-30T15:08:23.438Z,6.93
2024-01-30T15:10:52.097Z,5.57
2024-01-30T15:13:18.863Z,5.77
2024-01-30T15:15:45.570Z,4.65
2024-01-30T15:18:12.716Z,5.00
2024-01-30T15:20:39.565Z,5.50
2024-01-30T15:23:06.270Z,2.65
2024-01-30T15:25:33.010Z,5.57
2024-01-30T15:27:59.756Z,3.60
2024-01-30T15:30:26.484Z,4.90
2024-01-30T15:32:53.754Z,4.60
2024-01-30T15:35:20.452Z,4.03
2024-01-30T15:37:47.797Z,5.40
2024-01-30T15:40:14.508Z,5.07
2024-01-30T15:42:41.260Z,6.68
2024-01-30T15:45:08.265Z,4.13
2024-01-30T15:47:35.151Z,5.78
2024-01-30T15:50:01.989Z,4.57
2024-01-30T15:52:28.750Z,6.45
2024-01-30T15:54:55.440Z,5.55
2024-01-30T15:57:22.217Z,5.28
2024-01-30T15:59:48.840Z,7.78
2024-01-30T16:02:15.872Z,5.27
2024-01-30T16:04:42.779Z,6.47
2024-01-30T16:07:09.550Z,6.43
2024-01-30T16:09:36.191Z,6.82
2024-01-30T16:12:02.797Z,8.13
2024-01-30T16:14:29.547Z,9.43
2024-01-30T16:16:56.264Z,10.88
2024-01-30T16:19:23.142Z,10.02
2024-01-30T16:21:49.849Z,9.57
2024-01-30T16:24:16.576Z,10.13
2024-01-30T16:26:43.211Z,11.13
2024-01-30T16:29:09.823Z,11.88
2024-01-30T16:31:36.549Z,11.00
2024-01-30T16:34:03.376Z,13.80
2024-01-30T16:36:30.098Z,15.02
2024-01-30T16:38:58.814Z,13.33
2024-01-30T16:41:26.799Z,11.18
2024-01-30T16:43:53.517Z,11.55
2024-01-30T16:46:22.338Z,12.80
2024-01-30T16:48:51.494Z,12.32
2024-01-30T16:51:18.325Z,14.93
2024-01-30T16:53:45.180Z,15.00
2024-01-30T16:56:11.878Z,11.75
2024-01-30T16:58:38.867Z,13.95
2024-01-30T17:01:05.875Z,10.52
2024-01-30T17:03:32.552Z,14.23
2024-01-30T17:06:05.482Z,14.57
2024-01-30T17:08:35.810Z,11.55
2024-01-30T17:11:03.188Z,12.32
2024-01-30T17:13:29.949Z,12.73
2024-01-30T17:15:56.659Z,12.40
2024-01-30T17:18:23.312Z,12.05
2024-01-30T17:20:50.050Z,14.40
2024-01-30T17:23:16.788Z,12.07
2024-01-30T17:25:43.804Z,11.68
2024-01-30T17:28:11.207Z,16.10
2024-01-30T17:30:38.105Z,12.65
2024-01-30T17:33:05.042Z,14.05
2024-01-30T17:35:31.855Z,13.70
2024-01-30T17:37:58.947Z,15.00
2024-01-30T17:40:25.579Z,19.30
2024-01-30T17:42:52.291Z,15.75
2024-01-30T17:45:20.721Z,13.77
2024-01-30T17:47:48.681Z,24.35
2024-01-30T17:50:15.396Z,14.57
2024-01-30T17:52:41.943Z,14.10
2024-01-30T17:55:08.795Z,15.60
2024-01-30T17:57:35.460Z,13.02
2024-01-30T18:00:02.304Z,10.95
2024-01-30T18:02:31.865Z,11.30
2024-01-30T18:04:58.764Z,10.40
2024-01-30T18:07:25.430Z,10.05
2024-01-30T18:09:52.062Z,9.65
2024-01-30T18:12:18.684Z,9.65
2024-01-30T18:14:45.654Z,9.38
2024-01-30T18:17:12.316Z,9.47
2024-01-30T18:19:39.010Z,9.88
2024-01-30T18:22:05.768Z,8.45
2024-01-30T18:24:32.553Z,9.48
2024-01-30T18:26:59.288Z,7.93
2024-01-30T18:29:26.485Z,8.33
2024-01-30T18:31:53.201Z,9.00
2024-01-30T18:34:19.955Z,9.15
2024-01-30T18:36:46.680Z,9.20
2024-01-30T18:39:13.350Z,7.70
2024-01-30T18:41:40.028Z,8.57
2024-01-30T18:44:07.639Z,11.15
2024-01-30T18:46:37.176Z,9.52
2024-01-30T18:49:04.261Z,10.63
2024-01-30T18:51:31.397Z,12.45
2024-01-30T18:53:58.016Z,9.23
2024-01-30T18:56:24.636Z,9.10
2024-01-30T18:58:51.272Z,9.45
2024-01-30T19:01:20.253Z,13.80
2024-01-30T19:03:47.806Z,10.32
2024-01-30T19:06:14.569Z,20.83
2024-01-30T19:08:41.226Z,13.02
2024-01-30T19:11:07.964Z,17.63
2024-01-30T19:13:34.697Z,15.35
2024-01-30T19:16:01.439Z,10.70
2024-01-30T19:18:28.131Z,9.33
2024-01-30T19:20:54.767Z,11.00
2024-01-30T19:23:21.412Z,11.65
2024-01-30T19:25:48.840Z,10.38
2024-01-30T19:28:15.997Z,11.48
2024-01-30T19:30:42.672Z,9.20
2024-01-30T19:33:09.565Z,7.80
2024-01-30T19:35:36.447Z,13.38
2024-01-30T19:38:03.085Z,10.88
2024-01-30T19:40:29.810Z,13.18
2024-01-30T19:42:56.644Z,11.33
2024-01-30T19:45:23.248Z,14.73
2024-01-30T19:47:49.960Z,12.55
2024-01-30T19:50:16.610Z,12.85
2024-01-30T19:52:44.662Z,11.65
2024-01-30T19:55:11.321Z,11.27
2024-01-30T19:57:38.008Z,14.00
2024-01-30T20:00:05.402Z,11.15
2024-01-30T20:02:32.586Z,9.05
2024-01-30T20:05:00.342Z,15.40
2024-01-30T20:07:27.258Z,15.37
2024-01-30T20:09:54.062Z,10.07
2024-01-30T20:12:20.694Z,14.80
2024-01-30T20:14:47.372Z,15.55
2024-01-30T20:17:15.349Z,11.10
2024-01-30T20:19:45.012Z,10.10
2024-01-30T20:22:11.840Z,12.10
2024-01-30T20:24:38.591Z,15.35
2024-01-30T20:27:05.291Z,9.93
2024-01-30T20:29:32.456Z,9.85
2024-01-30T20:31:59.216Z,15.73
2024-01-30T20:34:26.048Z,18.35
2024-01-30T20:36:53.990Z,11.52
2024-01-30T20:39:20.789Z,16.83
2024-01-30T20:41:48.273Z,13.82
2024-01-30T20:44:17.052Z,15.53
2024-01-30T20:46:43.847Z,14.07
2024-01-30T20:49:14.683Z,14.05
2024-01-30T20:51:43.631Z,16.02
2024-01-30T20:54:10.406Z,9.38
2024-01-30T20:56:37.096Z,16.07
2024-01-30T20:59:03.968Z,12.60
2024-01-30T21:01:30.869Z,17.27
2024-01-30T21:03:57.764Z,17.45
2024-01-30T21:06:24.610Z,24.63
2024-01-30T21:08:51.290Z,21.97
2024-01-30T21:11:21.779Z,13.27
2024-01-30T21:13:49.294Z,10.73
2024-01-30T21:16:16.118Z,15.15
2024-01-30T21:18:44.041Z,10.15
2024-01-30T21:21:11.603Z,16.60
2024-01-30T21:23:39.747Z,12.45
2024-01-30T21:26:08.500Z,21.13
2024-01-30T21:28:36.251Z,14.88
2024-01-30T21:31:08.329Z,14.30
2024-01-30T21:33:35.506Z,18.40
2024-01-30T21:36:02.513Z,5.70
2024-01-30T21:38:29.313Z,11.88
2024-01-30T21:40:55.975Z,14.85
2024-01-30T21:43:22.649Z,9.95
2024-01-30T21:45:49.302Z,10.50
2024-01-30T21:48:15.965Z,4.82
2024-01-30T21:50:42.627Z,9.27
2024-01-30T21:53:09.323Z,8.15
2024-01-30T21:55:37.226Z,11.90
2024-01-30T21:58:04.137Z,18.77
2024-01-30T22:00:30.812Z,4.63
2024-01-30T22:02:57.521Z,13.23
2024-01-30T22:05:24.186Z,8.25
2024-01-30T22:07:50.867Z,11.38
2024-01-30T22:10:17.599Z,6.20
2024-01-30T22:12:44.348Z,11.35
2024-01-30T22:15:11.137Z,9.20
2024-01-30T22:17:37.963Z,8.25
2024-01-30T22:20:05.681Z,13.27
2024-01-30T22:22:34.595Z,10.27
2024-01-30T22:25:01.524Z,8.77
2024-01-30T22:27:28.205Z,6.35
2024-01-30T22:29:54.889Z,6.75
2024-01-30T22:32:21.660Z,5.80
2024-01-30T22:34:48.423Z,9.70
2024-01-30T22:37:15.295Z,8.00
2024-01-30T22:39:41.910Z,7.03
2024-01-30T22:42:09.612Z,5.38
2024-01-30T22:44:36.270Z,6.13
2024-01-30T22:47:02.845Z,9.93
2024-01-30T22:49:30.237Z,6.10
2024-01-30T22:51:57.121Z,9.07
2024-01-30T22:54:23.874Z,4.43
2024-01-30T22:56:50.787Z,8.85
2024-01-30T22:59:17.462Z,6.37
2024-01-30T23:01:44.510Z,5.05
2024-01-30T23:04:11.802Z,6.00
2024-01-30T23:06:38.861Z,6.35
2024-01-30T23:09:05.650Z,8.88
2024-01-30T23:11:32.768Z,3.73
2024-01-30T23:13:59.513Z,7.80
2024-01-30T23:16:26.260Z,7.82
2024-01-30T23:18:54.074Z,5.20
2024-01-30T23:21:20.944Z,3.35
2024-01-30T23:23:47.544Z,3.77
2024-01-30T23:26:14.222Z,8.88
2024-01-30T23:28:41.010Z,8.30
2024-01-30T23:31:08.334Z,8.45
2024-01-30T23:33:35.017Z,7.10
2024-01-30T23:36:01.677Z,5.30
2024-01-30T23:38:28.302Z,3.88
2024-01-30T23:40:55.040Z,5.70
2024-01-30T23:43:21.809Z,6.45
2024-01-30T23:45:48.516Z,6.03
2024-01-30T23:48:15.198Z,7.70
2024-01-30T23:50:41.886Z,6.72
2024-01-30T23:53:08.526Z,10.63
2024-01-30T23:55:35.264Z,6.97
2024-01-30T23:58:02.043Z,6.55
